Warning: Javascript must be enabled to use all the features on this page!


Page Loading - Please Wait...

Click to hideNews Bulletins

Peak Streamflow for the Nation

USGS 01350120 PLATTER KILL AT GILBOA NY

Schoharie County, New York
Hydrologic Unit Code 02020005
Latitude  42°24'22", Longitude  74°26'50" NAD83
Drainage area 10.9  square miles
Contributing drainage area 10.9  square miles
Gage datum 1,044.69 feet above NAVD88
Output formats
Table
Graph
Tab-separated file
peakfq (watstore) format
Reselect output format
Water
Year
Date Gage
Height
(feet)
Stream-
flow
(cfs)
1976 1976-01-27 3.251,3 2302
1977 1977-03-30 3.663 309
1978 1977-10-17 4.543 690
1979 1979-03-05 3.892,3 493
1980 1980-03-22 4.013 371
1981 1981-02-11 4.591,3 410
1982 1982-04-04 2.422,3 87.0
1983 1983-04-25 3.613 306
1984 1984-04-05 3.763 404
1985 1985-03-12 2.163 53.0
1986 1986-03-15 4.783 767
1987 1987-04-04 5.243 1,210
1988 1987-10-28 2.563 133
1989 1989-05-11 2.743 164
1990 1990-02-16 2.813 177
1991 1990-11-10 3.406 160
1992 1992-05-03 3.19 150
1993 1993-03-30 3.651 2092
1994 1994-04-13 3.062 130
1995 1995-03-10 3.042 103
1996 1996-01-19 6.70 1,370
1997 1996-11-09 3.54 187
1998 1998-06-14 3.27 138
1999 1999-09-17 3.47 1859
2000 2000-06-06 3.78 292
2001 2001-04-13 3.312 190
2002 2002-03-27 2.462 69.0
2003 2003-03-21 2.972 150
2004 2004-09-18 3.65 292
2005 2005-04-03 4.06 396
2006 2006-05-30 3.66 294
2007 2007-04-16 3.482 267
2008 2008-03-08 3.50 271
2009 2008-12-12 2.782 127
2010 2010-03-30 4.33 489
2011 2011-08-28 7.51 1,7509
2012 2011-11-23 2.432 77.0
2013 2013-06-13 2.012 196
2014 2014-06-25 3.602 295
2015 2015-04-10 2.612 100
2016 2016-02-25 2.642 105
2017 2017-04-06 2.88 145
2018 2018-04-16 2.582 95.5
2019 2019-04-15 2.732 119
2020 2020-08-04 2.442 75.9
?
  Peak Gage-Height Qualification Codes.
?
  Peak Streamflow Qualification Codes.